Nearby METAR Reports

 

KPMP - Pompano Beach, Florida, USA
Distance from station: NNW 3mi, 5km
Updated: 10/22/2021 4:53am
Mostly cloudy
Mostly cloudy
 Wind from E
Wind: E 5 mph , 7 km/h
Temperature: 81°F , 27°C
Heat Index: 85°F , 29°C
Dew Point: 72°F , 22°C
Humidity: 74%
Barometer: 29.99 inHg , 1015.6 hPa
Clouds: Mostly cloudy
Visibility: 10 miles , 16 km
Cloud details: Mostly cloudy 2400 ft
Mostly cloudy 2800 ft
Mostly cloudy 3300 ft
2021/10/22 08:53 KPMP 220853Z AUTO 09004KT 10SM BKN024 BKN028 BKN033 27/22 A2999 RMK AO2 SLP158 T02670222 56013
KFXE - Ft Lauderd/Exec, Florida, USA
Distance from station: W 6mi, 9km
Updated: 10/22/2021 4:53am
Mostly cloudy
Mostly cloudy
 Wind from N
Wind: N 3 mph , 6 km/h
Temperature: 79°F , 26°C
Dew Point: 73°F , 23°C
Humidity: 84%
Barometer: 29.99 inHg , 1015.6 hPa
Clouds: Mostly cloudy
Visibility: 10 miles , 16 km
Cloud details: Mostly cloudy 2300 ft
2021/10/22 08:53 KFXE 220853Z AUTO 01003KT 10SM BKN023 26/23 A2999 RMK AO2 SLP159 T02560228 56013 TSNO
 
KFLL - Ft Lauderd/Holly, Florida, USA
Distance from station: SSW 11mi, 17km
Updated: 10/22/2021 4:53am
Mostly cloudy
Mostly cloudy
 Wind from E
Wind: E 8 mph , 13 km/h
Temperature: 81°F , 27°C
Heat Index: 89°F , 32°C
Dew Point: 79°F , 26°C
Humidity: 94%
Barometer: 29.99 inHg , 1015.6 hPa
Clouds: Mostly cloudy
Visibility: 10 miles , 16 km
Cloud details: Partly cloudy 2000 ft
Mostly cloudy 3100 ft
Mostly cloudy 4200 ft
2021/10/22 08:53 KFLL 220853Z AUTO 10007KT 10SM SCT020 BKN031 BKN042 27/26 A2999 RMK AO2 SLP153 T02670261 56013
KBCT - Boca Raton, Florida, USA
Distance from station: N 12mi, 19km
Updated: 10/21/2021 10:47pm
NOT Current
Few Clouds
Few Clouds
 Wind from E
Wind: E 9 mph , 15 km/h
Temperature: 81°F , 27°C
Heat Index: 85°F , 29°C
Dew Point: 70°F , 21°C
Humidity: 70%
Barometer: 30.09 inHg , 1019 hPa
Clouds: Few Clouds
Visibility: 10 miles , 16 km
Cloud details: Few Clouds 2300 ft
2021/10/22 02:47 KBCT 220247Z 09008KT 10SM FEW023 27/21 A3009 RMK LAST
 
KHWO - Hollywood, Florida, USA
Distance from station: SSW 17mi, 27km
Updated: 10/22/2021 4:53am
Mostly cloudy
Mostly cloudy
 Wind from NNW
Wind: NNW 3 mph , 6 km/h
Temperature: 77°F , 25°C
Dew Point: 73°F , 23°C
Humidity: 89%
Barometer: 30.00 inHg , 1015.9 hPa
Clouds: Mostly cloudy
Visibility: 10 miles , 16 km
Cloud details: Mostly cloudy 2100 ft
Mostly cloudy 2800 ft
Mostly cloudy 7500 ft
2021/10/22 08:53 KHWO 220853Z 33003KT 10SM BKN021 BKN028 BKN075 25/23 A3000 RMK AO2 SLP160 T02500228 56007
KOPF - Miami/Opa Locka, Florida, USA
Distance from station: SSW 24mi, 38km
Updated: 10/22/2021 4:53am
Partly cloudy
Partly cloudy
 Wind from calm
Wind: Calm
Temperature: 79°F , 26°C
Dew Point: 72°F , 22°C
Humidity: 79%
Barometer: 29.99 inHg , 1015.6 hPa
Clouds: Partly cloudy
Visibility: 10 miles , 16 km
Cloud details: Partly cloudy 2000 ft
2021/10/22 08:53 KOPF 220853Z AUTO 00000KT 10SM SCT020 26/22 A2999 RMK AO2 SLP157 T02560222 56014
 
KMIA - Miami, Florida, USA
Distance from station: SSW 31mi, 50km
Updated: 10/22/2021 4:53am
Mostly cloudy
Mostly cloudy
 Wind from calm
Wind: Calm
Temperature: 79°F , 26°C
Dew Point: 75°F , 24°C
Humidity: 89%
Barometer: 29.99 inHg , 1015.6 hPa
Clouds: Mostly cloudy
Visibility: 10 miles , 16 km
Cloud details: Partly cloudy 1800 ft
Mostly cloudy 2400 ft
Mostly cloudy 25000 ft
2021/10/22 08:53 KMIA 220853Z 00000KT 10SM SCT018 BKN024 BKN250 26/24 A2999 RMK AO2 SLP155 T02610239 56015 $
KPBI - West Palm Beach, Florida, USA
Distance from station: N 33mi, 52km
Updated: 10/22/2021 4:53am
Mostly cloudy
Mostly cloudy
 Wind from E
Wind: E 3 mph , 6 km/h
Temperature: 79°F , 26°C
Dew Point: 73°F , 23°C
Humidity: 84%
Barometer: 30.01 inHg , 1016.3 hPa
Clouds: Mostly cloudy
Visibility: 10 miles , 16 km
Cloud details: Partly cloudy 3600 ft
Partly cloudy 4500 ft
Mostly cloudy 7000 ft
2021/10/22 08:53 KPBI 220853Z 08003KT 10SM SCT036 SCT045 BKN070 26/23 A3001 RMK AO2 RAE16 SLP161 P0000 60000 T02610233 56013
 
KTMB - Miami/Tamiami, Florida, USA
Distance from station: SSW 44mi, 71km
Updated: 10/22/2021 4:53am
Mostly cloudy
Mostly cloudy
 Wind from N
Wind: N 3 mph , 6 km/h
Temperature: 79°F , 26°C
Dew Point: 73°F , 23°C
Humidity: 84%
Barometer: 29.98 inHg , 1015.2 hPa
Clouds: Mostly cloudy
Visibility: 10 miles , 16 km
Cloud details: Few Clouds 1800 ft
Mostly cloudy 3600 ft
2021/10/22 08:53 KTMB 220853Z AUTO 36003KT 10SM FEW018 BKN036 26/23 A2998 RMK AO2 SLP152 T02560228 56016